sensor_id;sensor_type;location;lat;lon;timestamp;P1;durP1;ratioP1;P2;durP2;ratioP2
63882;SDS011;50047;50.596;30.466;2023-05-07T00:00:36;3.50;;;1.80;;
63882;SDS011;50047;50.596;30.466;2023-05-07T00:03:03;4.20;;;1.80;;
63882;SDS011;50047;50.596;30.466;2023-05-07T00:05:30;4.80;;;1.90;;
63882;SDS011;50047;50.596;30.466;2023-05-07T00:07:57;4.50;;;1.60;;
63882;SDS011;50047;50.596;30.466;2023-05-07T00:10:25;5.80;;;1.90;;
63882;SDS011;50047;50.596;30.466;2023-05-07T00:12:52;3.70;;;1.80;;
63882;SDS011;50047;50.596;30.466;2023-05-07T00:15:20;3.30;;;1.90;;
63882;SDS011;50047;50.596;30.466;2023-05-07T00:17:47;6.00;;;2.70;;
63882;SDS011;50047;50.596;30.466;2023-05-07T00:20:14;6.10;;;1.50;;
63882;SDS011;50047;50.596;30.466;2023-05-07T00:22:42;4.40;;;1.80;;
63882;SDS011;50047;50.596;30.466;2023-05-07T00:25:09;6.60;;;1.70;;
63882;SDS011;50047;50.596;30.466;2023-05-07T00:27:37;3.20;;;1.70;;
63882;SDS011;50047;50.596;30.466;2023-05-07T00:30:04;4.80;;;1.80;;
63882;SDS011;50047;50.596;30.466;2023-05-07T00:32:32;3.90;;;1.90;;
63882;SDS011;50047;50.596;30.466;2023-05-07T00:35:00;5.40;;;1.90;;
63882;SDS011;50047;50.596;30.466;2023-05-07T00:37:27;3.10;;;1.80;;
63882;SDS011;50047;50.596;30.466;2023-05-07T00:39:55;4.00;;;1.90;;
63882;SDS011;50047;50.596;30.466;2023-05-07T00:42:22;3.10;;;1.70;;
63882;SDS011;50047;50.596;30.466;2023-05-07T00:44:49;3.20;;;1.70;;
63882;SDS011;50047;50.596;30.466;2023-05-07T00:47:16;3.30;;;1.60;;
63882;SDS011;50047;50.596;30.466;2023-05-07T00:49:44;4.30;;;1.80;;
63882;SDS011;50047;50.596;30.466;2023-05-07T00:52:15;4.10;;;1.90;;
63882;SDS011;50047;50.596;30.466;2023-05-07T00:54:44;3.60;;;1.90;;
63882;SDS011;50047;50.596;30.466;2023-05-07T00:57:11;3.70;;;1.70;;
63882;SDS011;50047;50.596;30.466;2023-05-07T00:59:38;3.80;;;1.70;;
63882;SDS011;50047;50.596;30.466;2023-05-07T01:02:07;5.70;;;2.00;;
63882;SDS011;50047;50.596;30.466;2023-05-07T01:04:34;2.70;;;1.50;;
63882;SDS011;50047;50.596;30.466;2023-05-07T01:07:03;5.00;;;1.70;;
63882;SDS011;50047;50.596;30.466;2023-05-07T01:09:31;2.80;;;1.70;;
63882;SDS011;50047;50.596;30.466;2023-05-07T01:14:27;4.40;;;1.70;;
63882;SDS011;50047;50.596;30.466;2023-05-07T01:16:55;3.20;;;1.90;;
63882;SDS011;50047;50.596;30.466;2023-05-07T01:19:23;6.40;;;2.20;;
63882;SDS011;50047;50.596;30.466;2023-05-07T01:21:50;4.70;;;2.10;;
63882;SDS011;50047;50.596;30.466;2023-05-07T01:24:23;6.10;;;1.90;;
63882;SDS011;50047;50.596;30.466;2023-05-07T01:26:50;4.40;;;1.60;;
63882;SDS011;50047;50.596;30.466;2023-05-07T01:29:18;4.90;;;1.40;;
63882;SDS011;50047;50.596;30.466;2023-05-07T01:31:45;2.50;;;1.40;;
63882;SDS011;50047;50.596;30.466;2023-05-07T01:34:14;2.50;;;1.60;;
63882;SDS011;50047;50.596;30.466;2023-05-07T01:36:44;3.80;;;1.60;;
63882;SDS011;50047;50.596;30.466;2023-05-07T01:39:13;3.00;;;1.50;;
63882;SDS011;50047;50.596;30.466;2023-05-07T01:41:41;3.00;;;1.80;;
63882;SDS011;50047;50.596;30.466;2023-05-07T01:44:10;3.30;;;1.30;;
63882;SDS011;50047;50.596;30.466;2023-05-07T01:46:40;4.70;;;1.90;;
63882;SDS011;50047;50.596;30.466;2023-05-07T01:49:08;2.60;;;1.70;;
63882;SDS011;50047;50.596;30.466;2023-05-07T01:51:36;3.90;;;1.80;;
63882;SDS011;50047;50.596;30.466;2023-05-07T01:54:03;2.90;;;1.60;;
63882;SDS011;50047;50.596;30.466;2023-05-07T01:56:32;4.50;;;1.80;;
63882;SDS011;50047;50.596;30.466;2023-05-07T01:58:59;4.30;;;2.00;;
63882;SDS011;50047;50.596;30.466;2023-05-07T02:01:28;2.70;;;1.80;;
63882;SDS011;50047;50.596;30.466;2023-05-07T02:03:55;4.30;;;2.00;;
63882;SDS011;50047;50.596;30.466;2023-05-07T02:06:23;3.70;;;1.60;;
63882;SDS011;50047;50.596;30.466;2023-05-07T02:08:55;6.00;;;1.60;;
63882;SDS011;50047;50.596;30.466;2023-05-07T02:11:22;3.50;;;1.60;;
63882;SDS011;50047;50.596;30.466;2023-05-07T02:13:49;4.50;;;1.80;;
63882;SDS011;50047;50.596;30.466;2023-05-07T02:16:17;5.10;;;1.80;;
63882;SDS011;50047;50.596;30.466;2023-05-07T02:18:44;4.60;;;1.40;;
63882;SDS011;50047;50.596;30.466;2023-05-07T02:21:11;4.20;;;1.60;;
63882;SDS011;50047;50.596;30.466;2023-05-07T02:23:39;3.40;;;1.60;;
63882;SDS011;50047;50.596;30.466;2023-05-07T02:26:06;3.00;;;1.60;;
63882;SDS011;50047;50.596;30.466;2023-05-07T02:28:34;3.90;;;1.60;;
63882;SDS011;50047;50.596;30.466;2023-05-07T02:31:05;7.10;;;2.30;;
63882;SDS011;50047;50.596;30.466;2023-05-07T02:33:33;2.00;;;1.30;;
63882;SDS011;50047;50.596;30.466;2023-05-07T02:36:07;3.30;;;1.80;;
63882;SDS011;50047;50.596;30.466;2023-05-07T02:38:40;3.10;;;1.80;;
63882;SDS011;50047;50.596;30.466;2023-05-07T02:41:08;8.10;;;1.90;;
63882;SDS011;50047;50.596;30.466;2023-05-07T02:43:36;4.40;;;1.60;;
63882;SDS011;50047;50.596;30.466;2023-05-07T02:46:04;3.90;;;2.10;;
63882;SDS011;50047;50.596;30.466;2023-05-07T02:48:38;6.10;;;1.80;;
63882;SDS011;50047;50.596;30.466;2023-05-07T02:51:06;4.70;;;1.60;;
63882;SDS011;50047;50.596;30.466;2023-05-07T02:53:34;3.10;;;1.80;;
63882;SDS011;50047;50.596;30.466;2023-05-07T02:56:01;4.50;;;1.80;;
63882;SDS011;50047;50.596;30.466;2023-05-07T02:58:30;3.90;;;1.80;;
63882;SDS011;50047;50.596;30.466;2023-05-07T03:00:58;3.90;;;1.80;;
63882;SDS011;50047;50.596;30.466;2023-05-07T03:03:36;4.80;;;1.80;;
63882;SDS011;50047;50.596;30.466;2023-05-07T03:06:04;5.60;;;1.90;;
63882;SDS011;50047;50.596;30.466;2023-05-07T03:08:32;3.30;;;2.10;;
63882;SDS011;50047;50.596;30.466;2023-05-07T03:10:59;3.80;;;2.30;;
63882;SDS011;50047;50.596;30.466;2023-05-07T03:13:27;3.70;;;1.70;;
63882;SDS011;50047;50.596;30.466;2023-05-07T03:15:54;3.20;;;1.70;;
63882;SDS011;50047;50.596;30.466;2023-05-07T03:18:22;2.90;;;1.70;;
63882;SDS011;50047;50.596;30.466;2023-05-07T03:20:49;3.60;;;1.80;;
63882;SDS011;50047;50.596;30.466;2023-05-07T03:23:17;3.50;;;1.80;;
63882;SDS011;50047;50.596;30.466;2023-05-07T03:25:44;5.70;;;1.80;;
63882;SDS011;50047;50.596;30.466;2023-05-07T03:28:12;3.50;;;1.80;;
63882;SDS011;50047;50.596;30.466;2023-05-07T03:30:44;2.60;;;1.70;;
63882;SDS011;50047;50.596;30.466;2023-05-07T03:33:12;4.70;;;1.80;;
63882;SDS011;50047;50.596;30.466;2023-05-07T03:35:39;4.00;;;2.00;;
63882;SDS011;50047;50.596;30.466;2023-05-07T03:38:07;4.10;;;1.90;;
63882;SDS011;50047;50.596;30.466;2023-05-07T03:40:35;6.40;;;2.30;;
63882;SDS011;50047;50.596;30.466;2023-05-07T03:43:03;2.80;;;1.90;;
63882;SDS011;50047;50.596;30.466;2023-05-07T03:45:30;2.90;;;1.90;;
63882;SDS011;50047;50.596;30.466;2023-05-07T03:48:11;3.00;;;1.80;;
63882;SDS011;50047;50.596;30.466;2023-05-07T03:50:39;3.50;;;1.90;;
63882;SDS011;50047;50.596;30.466;2023-05-07T03:53:06;4.60;;;1.90;;
63882;SDS011;50047;50.596;30.466;2023-05-07T03:55:37;3.60;;;2.00;;
63882;SDS011;50047;50.596;30.466;2023-05-07T03:58:05;3.70;;;1.90;;
63882;SDS011;50047;50.596;30.466;2023-05-07T04:00:33;5.10;;;2.30;;
63882;SDS011;50047;50.596;30.466;2023-05-07T04:03:12;3.50;;;1.80;;
63882;SDS011;50047;50.596;30.466;2023-05-07T04:05:39;3.70;;;2.10;;
63882;SDS011;50047;50.596;30.466;2023-05-07T04:08:07;5.30;;;2.00;;
63882;SDS011;50047;50.596;30.466;2023-05-07T04:10:37;6.60;;;2.40;;
63882;SDS011;50047;50.596;30.466;2023-05-07T04:13:08;3.80;;;2.20;;
63882;SDS011;50047;50.596;30.466;2023-05-07T04:15:35;3.00;;;1.60;;
63882;SDS011;50047;50.596;30.466;2023-05-07T04:18:05;6.50;;;1.90;;
63882;SDS011;50047;50.596;30.466;2023-05-07T04:20:33;5.70;;;2.20;;
63882;SDS011;50047;50.596;30.466;2023-05-07T04:23:04;8.90;;;2.20;;
63882;SDS011;50047;50.596;30.466;2023-05-07T04:25:32;3.20;;;1.80;;
63882;SDS011;50047;50.596;30.466;2023-05-07T04:28:05;4.10;;;2.00;;
63882;SDS011;50047;50.596;30.466;2023-05-07T04:30:33;4.30;;;2.00;;
63882;SDS011;50047;50.596;30.466;2023-05-07T04:33:01;5.40;;;2.00;;
63882;SDS011;50047;50.596;30.466;2023-05-07T04:35:29;3.00;;;1.80;;
63882;SDS011;50047;50.596;30.466;2023-05-07T04:37:56;5.10;;;2.20;;
63882;SDS011;50047;50.596;30.466;2023-05-07T04:40:24;6.60;;;2.30;;
63882;SDS011;50047;50.596;30.466;2023-05-07T04:42:51;3.70;;;2.10;;
63882;SDS011;50047;50.596;30.466;2023-05-07T04:45:20;7.90;;;1.90;;
63882;SDS011;50047;50.596;30.466;2023-05-07T04:47:49;4.60;;;1.80;;
63882;SDS011;50047;50.596;30.466;2023-05-07T04:50:17;5.10;;;1.90;;
63882;SDS011;50047;50.596;30.466;2023-05-07T04:52:46;3.90;;;1.90;;
63882;SDS011;50047;50.596;30.466;2023-05-07T04:55:14;3.50;;;2.00;;
63882;SDS011;50047;50.596;30.466;2023-05-07T04:57:41;5.80;;;1.70;;
63882;SDS011;50047;50.596;30.466;2023-05-07T05:00:10;3.50;;;2.00;;
63882;SDS011;50047;50.596;30.466;2023-05-07T05:02:41;3.60;;;1.80;;
63882;SDS011;50047;50.596;30.466;2023-05-07T05:05:09;4.60;;;2.00;;
63882;SDS011;50047;50.596;30.466;2023-05-07T05:07:36;5.20;;;1.90;;
63882;SDS011;50047;50.596;30.466;2023-05-07T05:10:04;3.00;;;1.90;;
63882;SDS011;50047;50.596;30.466;2023-05-07T05:12:33;3.40;;;1.90;;
63882;SDS011;50047;50.596;30.466;2023-05-07T05:15:01;5.10;;;2.00;;
63882;SDS011;50047;50.596;30.466;2023-05-07T05:17:28;4.00;;;2.20;;
63882;SDS011;50047;50.596;30.466;2023-05-07T05:19:56;4.90;;;1.80;;
63882;SDS011;50047;50.596;30.466;2023-05-07T05:22:23;3.10;;;1.60;;
63882;SDS011;50047;50.596;30.466;2023-05-07T05:24:50;3.60;;;2.00;;
63882;SDS011;50047;50.596;30.466;2023-05-07T05:27:17;4.80;;;1.80;;
63882;SDS011;50047;50.596;30.466;2023-05-07T05:29:45;6.50;;;2.30;;
63882;SDS011;50047;50.596;30.466;2023-05-07T05:32:13;2.70;;;1.70;;
63882;SDS011;50047;50.596;30.466;2023-05-07T05:34:40;3.10;;;1.70;;
63882;SDS011;50047;50.596;30.466;2023-05-07T05:37:07;3.90;;;1.80;;
63882;SDS011;50047;50.596;30.466;2023-05-07T05:39:34;3.60;;;2.00;;
63882;SDS011;50047;50.596;30.466;2023-05-07T05:42:02;6.10;;;1.90;;
63882;SDS011;50047;50.596;30.466;2023-05-07T05:44:32;2.90;;;1.50;;
63882;SDS011;50047;50.596;30.466;2023-05-07T05:46:59;5.60;;;1.60;;
63882;SDS011;50047;50.596;30.466;2023-05-07T05:49:27;3.80;;;1.70;;
63882;SDS011;50047;50.596;30.466;2023-05-07T05:51:54;4.40;;;1.60;;
63882;SDS011;50047;50.596;30.466;2023-05-07T05:54:23;3.20;;;1.60;;
63882;SDS011;50047;50.596;30.466;2023-05-07T05:56:51;2.40;;;1.50;;
63882;SDS011;50047;50.596;30.466;2023-05-07T05:59:18;3.70;;;1.80;;
63882;SDS011;50047;50.596;30.466;2023-05-07T06:01:46;3.50;;;1.80;;
63882;SDS011;50047;50.596;30.466;2023-05-07T06:04:13;2.80;;;1.50;;
63882;SDS011;50047;50.596;30.466;2023-05-07T06:06:41;5.80;;;1.70;;
63882;SDS011;50047;50.596;30.466;2023-05-07T06:09:09;2.60;;;1.60;;
63882;SDS011;50047;50.596;30.466;2023-05-07T06:11:40;2.30;;;1.50;;
63882;SDS011;50047;50.596;30.466;2023-05-07T06:14:08;2.70;;;1.40;;
63882;SDS011;50047;50.596;30.466;2023-05-07T06:16:36;1.90;;;1.20;;
63882;SDS011;50047;50.596;30.466;2023-05-07T06:19:05;3.60;;;1.60;;
63882;SDS011;50047;50.596;30.466;2023-05-07T06:21:33;2.10;;;1.50;;
63882;SDS011;50047;50.596;30.466;2023-05-07T06:24:00;4.30;;;1.60;;
63882;SDS011;50047;50.596;30.466;2023-05-07T06:26:27;5.70;;;1.50;;
63882;SDS011;50047;50.596;30.466;2023-05-07T06:28:54;3.30;;;1.80;;
63882;SDS011;50047;50.596;30.466;2023-05-07T06:31:22;3.00;;;1.70;;
63882;SDS011;50047;50.596;30.466;2023-05-07T06:33:56;4.40;;;1.30;;
63882;SDS011;50047;50.596;30.466;2023-05-07T06:36:26;3.40;;;1.50;;
63882;SDS011;50047;50.596;30.466;2023-05-07T06:38:55;2.90;;;1.50;;
63882;SDS011;50047;50.596;30.466;2023-05-07T06:41:22;3.20;;;1.50;;
63882;SDS011;50047;50.596;30.466;2023-05-07T06:43:50;4.30;;;1.30;;
63882;SDS011;50047;50.596;30.466;2023-05-07T06:46:28;3.70;;;1.40;;
63882;SDS011;50047;50.596;30.466;2023-05-07T06:48:56;3.10;;;1.50;;
63882;SDS011;50047;50.596;30.466;2023-05-07T06:51:25;2.10;;;1.30;;
63882;SDS011;50047;50.596;30.466;2023-05-07T06:53:54;1.60;;;1.20;;
63882;SDS011;50047;50.596;30.466;2023-05-07T06:56:21;2.40;;;1.50;;
63882;SDS011;50047;50.596;30.466;2023-05-07T06:58:49;2.20;;;1.40;;
63882;SDS011;50047;50.596;30.466;2023-05-07T07:01:17;6.60;;;1.60;;
63882;SDS011;50047;50.596;30.466;2023-05-07T07:03:44;2.90;;;1.40;;
63882;SDS011;50047;50.596;30.466;2023-05-07T07:06:11;1.80;;;1.30;;
63882;SDS011;50047;50.596;30.466;2023-05-07T07:08:39;2.80;;;1.20;;
63882;SDS011;50047;50.596;30.466;2023-05-07T07:11:08;3.00;;;1.30;;
63882;SDS011;50047;50.596;30.466;2023-05-07T07:13:35;4.00;;;1.30;;
63882;SDS011;50047;50.596;30.466;2023-05-07T07:16:03;4.80;;;1.50;;
63882;SDS011;50047;50.596;30.466;2023-05-07T07:18:31;2.20;;;1.30;;
63882;SDS011;50047;50.596;30.466;2023-05-07T07:20:58;2.80;;;1.40;;
63882;SDS011;50047;50.596;30.466;2023-05-07T07:23:26;3.00;;;1.40;;
63882;SDS011;50047;50.596;30.466;2023-05-07T07:25:53;2.50;;;1.20;;
63882;SDS011;50047;50.596;30.466;2023-05-07T07:28:21;2.80;;;1.40;;
63882;SDS011;50047;50.596;30.466;2023-05-07T07:30:49;2.90;;;1.40;;
63882;SDS011;50047;50.596;30.466;2023-05-07T07:33:17;1.70;;;1.20;;
63882;SDS011;50047;50.596;30.466;2023-05-07T07:35:44;4.00;;;1.50;;
63882;SDS011;50047;50.596;30.466;2023-05-07T07:38:11;2.30;;;1.20;;
63882;SDS011;50047;50.596;30.466;2023-05-07T07:40:39;3.00;;;1.20;;
63882;SDS011;50047;50.596;30.466;2023-05-07T07:43:07;2.80;;;1.40;;
63882;SDS011;50047;50.596;30.466;2023-05-07T07:45:34;2.60;;;1.40;;
63882;SDS011;50047;50.596;30.466;2023-05-07T07:48:02;2.40;;;1.20;;
63882;SDS011;50047;50.596;30.466;2023-05-07T07:50:31;2.90;;;1.30;;
63882;SDS011;50047;50.596;30.466;2023-05-07T07:53:11;1.50;;;1.10;;
63882;SDS011;50047;50.596;30.466;2023-05-07T07:55:39;2.60;;;1.10;;
63882;SDS011;50047;50.596;30.466;2023-05-07T07:58:08;3.50;;;1.10;;
63882;SDS011;50047;50.596;30.466;2023-05-07T08:00:36;2.20;;;1.00;;
63882;SDS011;50047;50.596;30.466;2023-05-07T08:03:03;1.40;;;0.90;;
63882;SDS011;50047;50.596;30.466;2023-05-07T08:05:34;2.00;;;1.00;;
63882;SDS011;50047;50.596;30.466;2023-05-07T08:08:05;2.40;;;1.30;;
63882;SDS011;50047;50.596;30.466;2023-05-07T08:10:34;1.50;;;1.00;;
63882;SDS011;50047;50.596;30.466;2023-05-07T08:13:15;1.30;;;1.10;;
63882;SDS011;50047;50.596;30.466;2023-05-07T08:15:42;1.70;;;1.00;;
63882;SDS011;50047;50.596;30.466;2023-05-07T08:18:10;3.80;;;1.10;;
63882;SDS011;50047;50.596;30.466;2023-05-07T08:20:37;1.50;;;1.10;;
63882;SDS011;50047;50.596;30.466;2023-05-07T08:23:08;1.90;;;1.30;;
63882;SDS011;50047;50.596;30.466;2023-05-07T08:25:37;4.30;;;1.20;;
63882;SDS011;50047;50.596;30.466;2023-05-07T08:28:05;2.90;;;1.20;;
